createdAt,value
2022-08-02T00:01:04.496Z,17.73
2022-08-02T00:03:35.750Z,17.72
2022-08-02T00:06:04.149Z,17.70
2022-08-02T00:08:38.358Z,17.79
2022-08-02T00:11:10.237Z,17.76
2022-08-02T00:13:41.620Z,17.63
2022-08-02T00:16:11.170Z,17.46
2022-08-02T00:18:45.833Z,17.39
2022-08-02T00:21:18.273Z,17.12
2022-08-02T00:24:27.575Z,17.18
2022-08-02T00:26:40.627Z,17.38
2022-08-02T00:29:09.030Z,17.30
2022-08-02T00:31:38.611Z,17.25
2022-08-02T00:34:29.135Z,17.23
2022-08-02T00:36:55.330Z,17.25
2022-08-02T00:39:33.583Z,17.15
2022-08-02T00:42:11.107Z,17.01
2022-08-02T00:44:40.125Z,16.97
2022-08-02T00:47:08.447Z,16.96
2022-08-02T00:49:39.767Z,16.96
2022-08-02T00:52:14.325Z,16.88
2022-08-02T00:54:44.749Z,16.91
2022-08-02T00:57:17.895Z,16.83
2022-08-02T00:59:49.240Z,16.67
2022-08-02T01:02:17.886Z,16.79
2022-08-02T01:04:47.127Z,16.75
2022-08-02T01:07:15.979Z,16.59
2022-08-02T01:09:49.735Z,16.70
2022-08-02T01:12:20.534Z,16.37
2022-08-02T01:14:53.043Z,16.50
2022-08-02T01:17:25.521Z,16.54
2022-08-02T01:19:59.370Z,16.61
2022-08-02T01:23:09.765Z,16.46
2022-08-02T01:25:55.155Z,16.42
2022-08-02T01:28:39.474Z,16.43
2022-08-02T01:31:12.991Z,16.39
2022-08-02T01:33:55.108Z,16.41
2022-08-02T01:36:28.285Z,16.51
2022-08-02T01:39:00.517Z,16.45
2022-08-02T01:41:29.823Z,16.39
2022-08-02T01:44:05.728Z,16.33
2022-08-02T01:46:41.352Z,16.34
2022-08-02T01:49:14.002Z,16.41
2022-08-02T01:52:00.795Z,16.24
2022-08-02T01:54:34.438Z,16.44
2022-08-02T01:57:04.739Z,16.31
2022-08-02T01:59:38.586Z,16.12
2022-08-02T02:02:18.334Z,16.22
2022-08-02T02:04:49.979Z,16.24
2022-08-02T02:07:24.701Z,16.20
2022-08-02T02:09:53.489Z,16.25
2022-08-02T02:12:24.558Z,16.12
2022-08-02T02:14:58.456Z,16.13
2022-08-02T02:18:11.442Z,16.19
2022-08-02T02:20:22.753Z,16.16
2022-08-02T02:22:54.497Z,15.99
2022-08-02T02:25:35.872Z,15.98
2022-08-02T02:28:16.260Z,16.03
2022-08-02T02:30:54.193Z,15.83
2022-08-02T02:33:29.469Z,15.84
2022-08-02T02:36:01.991Z,15.85
2022-08-02T02:38:34.807Z,15.88
2022-08-02T02:41:07.519Z,15.86
2022-08-02T02:43:48.632Z,16.04
2022-08-02T02:46:25.222Z,16.06
2022-08-02T02:49:37.128Z,15.88
2022-08-02T02:52:06.433Z,15.83
2022-08-02T02:54:35.615Z,15.79
2022-08-02T02:57:08.581Z,15.75
2022-08-02T02:59:48.963Z,15.82
2022-08-02T03:02:20.936Z,15.73
2022-08-02T03:04:57.539Z,15.79
2022-08-02T03:07:35.544Z,15.77
2022-08-02T03:10:05.481Z,15.88
2022-08-02T03:12:34.345Z,15.84
2022-08-02T03:15:08.394Z,15.84
2022-08-02T03:17:46.023Z,15.80
2022-08-02T03:20:19.869Z,15.76
2022-08-02T03:22:57.878Z,15.75
2022-08-02T03:25:26.132Z,15.75
2022-08-02T03:27:54.310Z,15.73
2022-08-02T03:30:27.835Z,15.61
2022-08-02T03:33:01.514Z,15.61
2022-08-02T03:35:35.395Z,15.52
2022-08-02T03:38:03.944Z,15.49
2022-08-02T03:40:35.184Z,15.44
2022-08-02T03:43:03.861Z,15.28
2022-08-02T03:45:32.080Z,15.14
2022-08-02T03:48:02.419Z,14.99
2022-08-02T03:50:53.640Z,15.04
2022-08-02T03:53:22.532Z,14.98
2022-08-02T03:55:55.933Z,15.02
2022-08-02T03:58:27.741Z,14.95
2022-08-02T04:01:01.385Z,15.03
2022-08-02T04:03:31.357Z,14.98
2022-08-02T04:06:03.299Z,15.02
2022-08-02T04:08:37.992Z,15.08
2022-08-02T04:11:24.157Z,15.14
2022-08-02T04:13:57.724Z,15.27
2022-08-02T04:16:40.615Z,15.26
2022-08-02T04:19:15.457Z,15.24
2022-08-02T04:21:52.229Z,15.25
2022-08-02T04:24:24.437Z,15.31
2022-08-02T04:26:56.279Z,15.27
2022-08-02T04:29:30.579Z,15.19
2022-08-02T04:32:02.614Z,15.15
2022-08-02T04:34:35.852Z,15.29
2022-08-02T04:37:06.788Z,15.49
2022-08-02T04:39:37.251Z,15.56
2022-08-02T04:42:08.758Z,15.62
2022-08-02T04:44:40.623Z,15.68
2022-08-02T04:47:09.503Z,15.87
2022-08-02T04:49:42.587Z,15.64
2022-08-02T04:52:11.146Z,15.89
2022-08-02T04:54:51.739Z,16.04
2022-08-02T05:00:30.525Z,16.39
2022-08-02T05:03:14.007Z,16.42
2022-08-02T05:06:07.617Z,16.57
2022-08-02T05:09:06.042Z,16.84
2022-08-02T05:11:40.593Z,16.75
2022-08-02T05:14:20.430Z,17.02
2022-08-02T05:17:00.151Z,17.16
2022-08-02T05:19:44.304Z,17.32
2022-08-02T05:22:31.420Z,17.31
2022-08-02T05:25:15.404Z,17.42
2022-08-02T05:27:50.349Z,17.59
2022-08-02T05:30:31.414Z,17.68
2022-08-02T05:33:03.179Z,17.74
2022-08-02T05:35:47.388Z,17.83
2022-08-02T05:47:28.457Z,18.16
2022-08-02T05:50:45.225Z,18.18
2022-08-02T05:54:05.122Z,18.04
2022-08-02T06:28:55.177Z,19.52
2022-08-02T06:51:49.804Z,20.64
2022-08-02T06:54:50.140Z,20.67
2022-08-02T07:04:48.546Z,21.18
2022-08-02T07:13:46.132Z,21.74
2022-08-02T07:28:29.761Z,22.04
2022-08-02T07:31:26.314Z,22.24
2022-08-02T07:34:15.963Z,22.44
2022-08-02T07:37:35.621Z,22.53
2022-08-02T07:40:31.579Z,22.78
2022-08-02T08:15:28.401Z,23.52
2022-08-02T08:17:57.613Z,23.73
2022-08-02T08:20:49.390Z,23.62
2022-08-02T08:42:31.504Z,24.18
2022-08-02T08:45:02.602Z,24.37
2022-08-02T08:48:06.189Z,24.57
2022-08-02T09:03:20.742Z,24.70
2022-08-02T09:06:19.914Z,24.60
2022-08-02T09:12:24.303Z,25.16
2022-08-02T09:15:12.001Z,25.38
2022-08-02T09:17:53.412Z,25.48
2022-08-02T09:20:39.134Z,25.50
2022-08-02T09:23:09.211Z,25.67
2022-08-02T09:25:59.025Z,25.85
2022-08-02T09:28:43.770Z,25.67
2022-08-02T09:40:42.454Z,26.20
2022-08-02T09:46:27.124Z,26.24
2022-08-02T09:49:10.203Z,26.75
2022-08-02T09:52:03.826Z,26.71
2022-08-02T09:54:50.857Z,27.24
2022-08-02T09:57:43.883Z,27.33
2022-08-02T10:00:50.716Z,27.53
2022-08-02T10:12:26.120Z,28.79
2022-08-02T10:15:10.558Z,29.48
2022-08-02T10:20:51.805Z,28.64
2022-08-02T10:23:42.376Z,28.64
2022-08-02T10:26:23.871Z,28.52
2022-08-02T10:29:04.052Z,28.33
2022-08-02T10:31:51.881Z,28.16
2022-08-02T10:34:37.785Z,28.24
2022-08-02T10:37:22.265Z,28.52
2022-08-02T10:43:04.239Z,28.56
2022-08-02T10:45:50.594Z,28.60
2022-08-02T10:51:34.682Z,28.28
2022-08-02T10:54:28.436Z,28.62
2022-08-02T10:57:16.160Z,28.79
2022-08-02T11:00:01.095Z,29.17
2022-08-02T11:06:25.372Z,29.02
2022-08-02T11:09:43.113Z,28.78
2022-08-02T11:12:26.738Z,28.88
2022-08-02T11:21:32.417Z,28.63
2022-08-02T11:24:42.298Z,28.33
2022-08-02T11:27:34.465Z,28.27
2022-08-02T11:30:26.723Z,28.21
2022-08-02T11:36:14.711Z,27.91
2022-08-02T11:42:04.289Z,27.99
2022-08-02T11:44:54.885Z,28.58
2022-08-02T11:47:42.891Z,28.74
2022-08-02T11:50:30.104Z,28.82
2022-08-02T11:53:09.434Z,28.35
2022-08-02T11:55:58.570Z,27.87
2022-08-02T12:01:36.874Z,27.28
2022-08-02T12:27:09.484Z,27.38
2022-08-02T12:29:58.859Z,27.52
2022-08-02T12:33:00.611Z,27.92
2022-08-02T12:58:11.884Z,29.49
2022-08-02T13:16:04.271Z,41.81
2022-08-02T13:18:38.172Z,46.20
2022-08-02T13:24:39.609Z,47.10
2022-08-02T13:27:18.312Z,45.89
2022-08-02T13:30:12.746Z,44.36
2022-08-02T13:33:07.007Z,46.29
2022-08-02T13:35:46.591Z,44.83
2022-08-02T13:38:33.968Z,41.36
2022-08-02T13:50:27.721Z,33.11
2022-08-02T13:53:13.059Z,32.63
2022-08-02T14:14:03.951Z,31.15
2022-08-02T14:16:50.073Z,31.72
2022-08-02T14:22:37.843Z,42.09
2022-08-02T14:28:30.076Z,42.74
2022-08-02T14:31:08.783Z,36.86
2022-08-02T14:33:49.842Z,34.78
2022-08-02T14:45:51.987Z,31.93
2022-08-02T14:48:31.466Z,31.39
2022-08-02T14:57:20.957Z,30.69
2022-08-02T15:00:07.125Z,30.71
2022-08-02T15:02:49.887Z,30.55
2022-08-02T15:17:46.941Z,31.97
2022-08-02T15:20:28.557Z,34.59
2022-08-02T15:23:16.777Z,37.76
2022-08-02T15:28:55.609Z,39.60
2022-08-02T15:52:45.632Z,29.79
2022-08-02T15:55:40.022Z,29.41
2022-08-02T16:20:06.333Z,29.66
2022-08-02T16:22:37.328Z,29.54
2022-08-02T16:25:10.081Z,29.45
2022-08-02T16:28:06.069Z,29.59
2022-08-02T16:31:04.935Z,29.51
2022-08-02T16:39:55.329Z,29.76
2022-08-02T16:48:55.518Z,28.96
2022-08-02T16:51:41.667Z,28.62
2022-08-02T17:00:18.372Z,27.32
2022-08-02T17:03:13.441Z,27.20
2022-08-02T17:05:59.049Z,27.02
2022-08-02T17:11:41.723Z,26.91
2022-08-02T17:14:28.715Z,26.83
2022-08-02T17:17:08.136Z,26.89
2022-08-02T17:25:52.670Z,27.44
2022-08-02T17:37:33.637Z,27.04
2022-08-02T17:40:13.395Z,26.72
2022-08-02T17:43:14.740Z,26.74
2022-08-02T17:46:00.742Z,26.56
2022-08-02T17:48:56.766Z,26.44
2022-08-02T17:52:48.403Z,25.98
2022-08-02T17:54:33.405Z,26.01
2022-08-02T17:57:08.955Z,26.01
2022-08-02T17:59:45.282Z,25.91
2022-08-02T18:02:52.734Z,25.82
2022-08-02T18:05:53.765Z,25.66
2022-08-02T18:08:37.783Z,25.51
2022-08-02T18:11:51.750Z,25.38
2022-08-02T18:14:16.700Z,25.21
2022-08-02T18:16:46.738Z,25.11
2022-08-02T18:19:42.651Z,24.93
2022-08-02T18:22:12.731Z,24.81
2022-08-02T18:24:48.165Z,24.77
2022-08-02T18:27:21.893Z,24.66
2022-08-02T18:30:00.163Z,24.61
2022-08-02T18:33:57.556Z,24.43
2022-08-02T18:35:42.295Z,24.28
2022-08-02T18:38:20.838Z,24.13
2022-08-02T18:40:55.209Z,23.97
2022-08-02T18:43:37.207Z,23.82
2022-08-02T18:46:20.201Z,23.64
2022-08-02T18:48:50.965Z,23.47
2022-08-02T18:54:26.561Z,23.11
2022-08-02T18:57:04.261Z,22.99
2022-08-02T18:59:55.713Z,22.87
2022-08-02T19:02:36.684Z,22.83
2022-08-02T19:05:08.119Z,22.72
2022-08-02T19:07:51.078Z,22.68
2022-08-02T19:10:29.058Z,22.70
2022-08-02T19:13:06.106Z,22.66
2022-08-02T19:15:48.431Z,22.64
2022-08-02T19:18:29.996Z,22.53
2022-08-02T19:21:05.217Z,22.47
2022-08-02T19:23:34.452Z,22.40
2022-08-02T19:26:06.854Z,22.43
2022-08-02T19:28:52.560Z,22.40
2022-08-02T19:31:59.583Z,22.37
2022-08-02T19:34:25.146Z,22.32
2022-08-02T19:36:54.544Z,22.27
2022-08-02T19:39:25.271Z,22.24
2022-08-02T19:42:01.459Z,22.19
2022-08-02T19:44:45.673Z,22.11
2022-08-02T19:47:23.282Z,22.08
2022-08-02T19:50:16.011Z,22.04
2022-08-02T20:20:11.431Z,21.78
2022-08-02T20:23:32.545Z,21.73
2022-08-02T20:26:13.131Z,21.64
2022-08-02T20:35:01.467Z,21.36
2022-08-02T20:40:45.356Z,21.25
2022-08-02T20:46:22.993Z,21.19
2022-08-02T20:49:05.516Z,21.10
2022-08-02T20:51:56.379Z,21.00
2022-08-02T20:54:35.300Z,20.95
2022-08-02T21:06:18.779Z,20.33
2022-08-02T21:12:01.868Z,20.38
2022-08-02T21:14:38.664Z,20.05
2022-08-02T21:20:27.515Z,20.05
2022-08-02T21:29:14.583Z,19.86
2022-08-02T21:31:53.514Z,19.95
2022-08-02T21:34:35.726Z,19.99
2022-08-02T21:37:19.765Z,19.83
2022-08-02T21:48:53.059Z,19.56
2022-08-02T21:51:28.381Z,19.57
2022-08-02T21:59:59.861Z,19.69
2022-08-02T22:02:31.736Z,19.58
2022-08-02T22:05:13.336Z,19.45
2022-08-02T22:07:55.613Z,19.27
2022-08-02T22:10:53.063Z,19.26
2022-08-02T22:13:47.696Z,19.32
2022-08-02T22:16:28.537Z,19.16
2022-08-02T22:24:59.521Z,19.37
2022-08-02T22:28:35.302Z,19.30
2022-08-02T22:30:46.226Z,19.35
2022-08-02T22:34:00.263Z,19.25
2022-08-02T22:36:44.327Z,19.37
2022-08-02T22:42:07.376Z,19.18
2022-08-02T22:44:36.839Z,19.08
2022-08-02T22:47:14.526Z,19.07
2022-08-02T22:49:53.278Z,19.03
2022-08-02T22:52:29.538Z,18.93
2022-08-02T22:55:03.001Z,18.87
2022-08-02T22:57:31.509Z,18.78
2022-08-02T23:00:08.585Z,18.67
2022-08-02T23:02:39.715Z,18.66
2022-08-02T23:05:16.406Z,18.62
2022-08-02T23:07:48.169Z,18.55
2022-08-02T23:10:22.476Z,18.48
2022-08-02T23:12:51.057Z,18.44
2022-08-02T23:15:19.571Z,18.43
2022-08-02T23:18:22.484Z,18.42
2022-08-02T23:20:54.561Z,18.34
2022-08-02T23:23:35.915Z,18.33
2022-08-02T23:26:07.798Z,18.24
2022-08-02T23:28:39.345Z,18.25
2022-08-02T23:31:41.570Z,18.25
2022-08-02T23:34:13.458Z,18.21
2022-08-02T23:36:45.397Z,18.14
2022-08-02T23:39:15.107Z,18.12
2022-08-02T23:41:49.308Z,18.01
2022-08-02T23:44:30.982Z,18.02
2022-08-02T23:47:02.704Z,17.97
2022-08-02T23:49:41.901Z,17.91
2022-08-02T23:52:13.331Z,17.88
2022-08-02T23:54:45.067Z,17.83
2022-08-02T23:57:20.634Z,17.81
2022-08-02T23:59:54.041Z,17.63
